sensor_id;sensor_type;location;lat;lon;timestamp;temperature;humidity
10042;DHT22;5061;49.068;12.058;2023-08-20T00:03:15;22.50;99.90
10042;DHT22;5061;49.068;12.058;2023-08-20T00:06:35;22.50;99.90
10042;DHT22;5061;49.068;12.058;2023-08-20T00:09:56;22.50;99.90
10042;DHT22;5061;49.068;12.058;2023-08-20T00:13:17;22.50;99.90
10042;DHT22;5061;49.068;12.058;2023-08-20T00:16:37;22.40;99.90
10042;DHT22;5061;49.068;12.058;2023-08-20T00:19:58;22.40;99.90
10042;DHT22;5061;49.068;12.058;2023-08-20T00:23:19;22.40;99.90
10042;DHT22;5061;49.068;12.058;2023-08-20T00:26:40;22.40;99.90
10042;DHT22;5061;49.068;12.058;2023-08-20T00:30:01;22.40;99.90
10042;DHT22;5061;49.068;12.058;2023-08-20T00:33:21;22.30;99.90
10042;DHT22;5061;49.068;12.058;2023-08-20T00:36:42;22.30;99.90
10042;DHT22;5061;49.068;12.058;2023-08-20T00:40:03;22.30;99.90
10042;DHT22;5061;49.068;12.058;2023-08-20T00:43:27;22.30;99.90
10042;DHT22;5061;49.068;12.058;2023-08-20T00:46:47;22.30;99.90
10042;DHT22;5061;49.068;12.058;2023-08-20T00:50:09;22.30;99.90
10042;DHT22;5061;49.068;12.058;2023-08-20T00:53:30;22.30;99.90
10042;DHT22;5061;49.068;12.058;2023-08-20T00:56:51;22.30;99.90
10042;DHT22;5061;49.068;12.058;2023-08-20T01:00:12;22.20;99.90
10042;DHT22;5061;49.068;12.058;2023-08-20T01:03:32;22.20;99.90
10042;DHT22;5061;49.068;12.058;2023-08-20T01:07:17;22.20;99.90
10042;DHT22;5061;49.068;12.058;2023-08-20T01:10:59;22.20;99.90
10042;DHT22;5061;49.068;12.058;2023-08-20T01:14:22;22.20;99.90
10042;DHT22;5061;49.068;12.058;2023-08-20T01:17:43;22.20;99.90
10042;DHT22;5061;49.068;12.058;2023-08-20T01:21:24;22.10;99.90
10042;DHT22;5061;49.068;12.058;2023-08-20T01:28:26;22.10;99.90
10042;DHT22;5061;49.068;12.058;2023-08-20T01:31:47;22.10;99.90
10042;DHT22;5061;49.068;12.058;2023-08-20T01:35:12;22.10;99.90
10042;DHT22;5061;49.068;12.058;2023-08-20T01:38:34;22.10;99.90
10042;DHT22;5061;49.068;12.058;2023-08-20T01:41:54;22.00;99.90
10042;DHT22;5061;49.068;12.058;2023-08-20T01:45:15;22.00;99.90
10042;DHT22;5061;49.068;12.058;2023-08-20T01:48:36;22.00;99.90
10042;DHT22;5061;49.068;12.058;2023-08-20T01:51:56;22.00;99.90
10042;DHT22;5061;49.068;12.058;2023-08-20T01:55:17;22.00;99.90
10042;DHT22;5061;49.068;12.058;2023-08-20T01:58:37;22.00;99.90
10042;DHT22;5061;49.068;12.058;2023-08-20T02:01:58;22.00;99.90
10042;DHT22;5061;49.068;12.058;2023-08-20T02:05:18;21.90;99.90
10042;DHT22;5061;49.068;12.058;2023-08-20T02:08:39;21.90;99.90
10042;DHT22;5061;49.068;12.058;2023-08-20T02:12:00;21.90;99.90
10042;DHT22;5061;49.068;12.058;2023-08-20T02:15:20;21.80;99.90
10042;DHT22;5061;49.068;12.058;2023-08-20T02:18:41;21.90;99.90
10042;DHT22;5061;49.068;12.058;2023-08-20T02:22:01;21.80;99.90
10042;DHT22;5061;49.068;12.058;2023-08-20T02:25:23;21.90;99.90
10042;DHT22;5061;49.068;12.058;2023-08-20T02:28:45;21.90;99.90
10042;DHT22;5061;49.068;12.058;2023-08-20T02:32:05;21.90;99.90
10042;DHT22;5061;49.068;12.058;2023-08-20T02:35:26;21.90;99.90
10042;DHT22;5061;49.068;12.058;2023-08-20T02:38:46;21.90;99.90
10042;DHT22;5061;49.068;12.058;2023-08-20T02:42:07;21.90;99.90
10042;DHT22;5061;49.068;12.058;2023-08-20T02:45:28;21.90;99.90
10042;DHT22;5061;49.068;12.058;2023-08-20T02:48:48;21.80;99.90
10042;DHT22;5061;49.068;12.058;2023-08-20T02:52:09;21.90;99.90
10042;DHT22;5061;49.068;12.058;2023-08-20T02:55:31;21.80;99.90
10042;DHT22;5061;49.068;12.058;2023-08-20T02:58:52;21.80;99.90
10042;DHT22;5061;49.068;12.058;2023-08-20T03:02:12;21.70;99.90
10042;DHT22;5061;49.068;12.058;2023-08-20T03:05:33;21.70;99.90
10042;DHT22;5061;49.068;12.058;2023-08-20T03:08:54;21.70;99.90
10042;DHT22;5061;49.068;12.058;2023-08-20T03:12:14;21.60;99.90
10042;DHT22;5061;49.068;12.058;2023-08-20T03:15:35;21.60;99.90
10042;DHT22;5061;49.068;12.058;2023-08-20T03:18:56;21.60;99.90
10042;DHT22;5061;49.068;12.058;2023-08-20T03:22:16;21.60;99.90
10042;DHT22;5061;49.068;12.058;2023-08-20T03:25:38;21.50;99.90
10042;DHT22;5061;49.068;12.058;2023-08-20T03:28:59;21.50;99.90
10042;DHT22;5061;49.068;12.058;2023-08-20T03:32:20;21.50;99.90
10042;DHT22;5061;49.068;12.058;2023-08-20T03:35:40;21.50;99.90
10042;DHT22;5061;49.068;12.058;2023-08-20T03:39:01;21.40;99.90
10042;DHT22;5061;49.068;12.058;2023-08-20T03:42:21;21.50;99.90
10042;DHT22;5061;49.068;12.058;2023-08-20T03:45:42;21.50;99.90
10042;DHT22;5061;49.068;12.058;2023-08-20T03:49:03;21.50;99.90
10042;DHT22;5061;49.068;12.058;2023-08-20T03:52:23;21.50;99.90
10042;DHT22;5061;49.068;12.058;2023-08-20T03:55:48;21.40;99.90
10042;DHT22;5061;49.068;12.058;2023-08-20T03:59:09;21.40;99.90
10042;DHT22;5061;49.068;12.058;2023-08-20T04:02:30;21.40;99.90
10042;DHT22;5061;49.068;12.058;2023-08-20T04:05:50;21.40;99.90
10042;DHT22;5061;49.068;12.058;2023-08-20T04:09:11;21.30;99.90
10042;DHT22;5061;49.068;12.058;2023-08-20T04:12:32;21.30;99.90
10042;DHT22;5061;49.068;12.058;2023-08-20T04:15:53;21.30;99.90
10042;DHT22;5061;49.068;12.058;2023-08-20T04:19:13;21.20;99.90
10042;DHT22;5061;49.068;12.058;2023-08-20T04:22:34;21.20;99.90
10042;DHT22;5061;49.068;12.058;2023-08-20T04:25:54;21.20;99.90
10042;DHT22;5061;49.068;12.058;2023-08-20T04:29:15;21.10;99.90
10042;DHT22;5061;49.068;12.058;2023-08-20T04:32:35;21.10;99.90
10042;DHT22;5061;49.068;12.058;2023-08-20T04:35:56;21.00;99.90
10042;DHT22;5061;49.068;12.058;2023-08-20T04:39:18;21.00;99.90
10042;DHT22;5061;49.068;12.058;2023-08-20T04:42:38;21.00;99.90
10042;DHT22;5061;49.068;12.058;2023-08-20T04:45:59;20.90;99.90
10042;DHT22;5061;49.068;12.058;2023-08-20T04:49:19;20.90;99.90
10042;DHT22;5061;49.068;12.058;2023-08-20T04:52:40;20.90;99.90
10042;DHT22;5061;49.068;12.058;2023-08-20T04:56:01;20.90;99.90
10042;DHT22;5061;49.068;12.058;2023-08-20T04:59:21;20.80;99.90
10042;DHT22;5061;49.068;12.058;2023-08-20T05:02:42;20.90;99.90
10042;DHT22;5061;49.068;12.058;2023-08-20T05:06:03;20.80;99.90
10042;DHT22;5061;49.068;12.058;2023-08-20T05:09:24;20.90;99.90
10042;DHT22;5061;49.068;12.058;2023-08-20T05:12:45;20.90;99.90
10042;DHT22;5061;49.068;12.058;2023-08-20T05:16:06;20.90;99.90
10042;DHT22;5061;49.068;12.058;2023-08-20T05:19:26;21.00;99.90
10042;DHT22;5061;49.068;12.058;2023-08-20T05:22:47;21.00;99.90
10042;DHT22;5061;49.068;12.058;2023-08-20T05:26:08;21.10;99.90
10042;DHT22;5061;49.068;12.058;2023-08-20T05:29:28;21.10;99.90
10042;DHT22;5061;49.068;12.058;2023-08-20T05:32:49;21.10;99.90
10042;DHT22;5061;49.068;12.058;2023-08-20T05:36:09;21.20;99.90
10042;DHT22;5061;49.068;12.058;2023-08-20T05:39:35;21.20;99.90
10042;DHT22;5061;49.068;12.058;2023-08-20T05:42:56;21.20;99.90
10042;DHT22;5061;49.068;12.058;2023-08-20T05:46:17;21.30;99.90
10042;DHT22;5061;49.068;12.058;2023-08-20T05:49:38;21.30;99.90
10042;DHT22;5061;49.068;12.058;2023-08-20T05:52:58;21.40;99.90
10042;DHT22;5061;49.068;12.058;2023-08-20T05:56:19;21.40;99.90
10042;DHT22;5061;49.068;12.058;2023-08-20T05:59:39;21.40;99.90
10042;DHT22;5061;49.068;12.058;2023-08-20T06:03:00;21.40;99.90
10042;DHT22;5061;49.068;12.058;2023-08-20T06:06:21;21.50;99.90
10042;DHT22;5061;49.068;12.058;2023-08-20T06:09:42;21.50;99.90
10042;DHT22;5061;49.068;12.058;2023-08-20T06:13:02;21.50;99.90
10042;DHT22;5061;49.068;12.058;2023-08-20T06:16:23;21.50;99.90
10042;DHT22;5061;49.068;12.058;2023-08-20T06:19:44;21.50;99.90
10042;DHT22;5061;49.068;12.058;2023-08-20T06:23:05;21.60;99.90
10042;DHT22;5061;49.068;12.058;2023-08-20T06:26:26;21.60;99.90
10042;DHT22;5061;49.068;12.058;2023-08-20T06:29:46;21.70;99.90
10042;DHT22;5061;49.068;12.058;2023-08-20T06:33:07;21.70;99.90
10042;DHT22;5061;49.068;12.058;2023-08-20T06:36:27;21.80;99.90
10042;DHT22;5061;49.068;12.058;2023-08-20T06:39:48;21.80;99.90
10042;DHT22;5061;49.068;12.058;2023-08-20T06:43:09;21.90;99.90
10042;DHT22;5061;49.068;12.058;2023-08-20T06:46:29;21.90;99.90
10042;DHT22;5061;49.068;12.058;2023-08-20T06:49:50;22.00;99.90
10042;DHT22;5061;49.068;12.058;2023-08-20T06:53:11;22.10;99.90
10042;DHT22;5061;49.068;12.058;2023-08-20T06:56:33;22.10;99.90
10042;DHT22;5061;49.068;12.058;2023-08-20T06:59:53;22.20;99.90
10042;DHT22;5061;49.068;12.058;2023-08-20T07:03:14;22.20;99.90
10042;DHT22;5061;49.068;12.058;2023-08-20T07:06:35;22.30;99.90
10042;DHT22;5061;49.068;12.058;2023-08-20T07:09:55;22.30;99.90
10042;DHT22;5061;49.068;12.058;2023-08-20T07:13:16;22.40;99.90
10042;DHT22;5061;49.068;12.058;2023-08-20T07:16:37;22.50;99.90
10042;DHT22;5061;49.068;12.058;2023-08-20T07:19:57;22.60;99.90
10042;DHT22;5061;49.068;12.058;2023-08-20T07:23:18;22.60;99.90
10042;DHT22;5061;49.068;12.058;2023-08-20T07:26:38;22.70;99.90
10042;DHT22;5061;49.068;12.058;2023-08-20T07:29:59;22.70;99.90
10042;DHT22;5061;49.068;12.058;2023-08-20T07:33:20;22.80;99.90
10042;DHT22;5061;49.068;12.058;2023-08-20T07:36:41;22.90;99.90
10042;DHT22;5061;49.068;12.058;2023-08-20T07:40:01;22.90;99.90
10042;DHT22;5061;49.068;12.058;2023-08-20T07:43:24;23.00;99.90
10042;DHT22;5061;49.068;12.058;2023-08-20T07:46:44;23.10;99.90
10042;DHT22;5061;49.068;12.058;2023-08-20T07:50:05;23.10;99.90
10042;DHT22;5061;49.068;12.058;2023-08-20T07:53:26;23.20;99.90
10042;DHT22;5061;49.068;12.058;2023-08-20T07:56:47;23.20;99.90
10042;DHT22;5061;49.068;12.058;2023-08-20T08:00:08;23.30;99.90
10042;DHT22;5061;49.068;12.058;2023-08-20T08:03:28;23.40;99.90
10042;DHT22;5061;49.068;12.058;2023-08-20T08:06:49;23.40;99.90
10042;DHT22;5061;49.068;12.058;2023-08-20T08:10:10;23.50;99.90
10042;DHT22;5061;49.068;12.058;2023-08-20T08:13:30;23.50;99.90
10042;DHT22;5061;49.068;12.058;2023-08-20T08:16:51;23.60;99.90
10042;DHT22;5061;49.068;12.058;2023-08-20T08:20:12;23.70;99.90
10042;DHT22;5061;49.068;12.058;2023-08-20T08:23:33;23.70;99.90
10042;DHT22;5061;49.068;12.058;2023-08-20T08:26:53;23.80;99.90
10042;DHT22;5061;49.068;12.058;2023-08-20T08:30:14;23.90;99.90
10042;DHT22;5061;49.068;12.058;2023-08-20T08:33:35;23.90;99.90
10042;DHT22;5061;49.068;12.058;2023-08-20T08:36:55;24.00;99.90
10042;DHT22;5061;49.068;12.058;2023-08-20T08:40:16;24.10;99.90
10042;DHT22;5061;49.068;12.058;2023-08-20T08:43:40;24.20;99.90
10042;DHT22;5061;49.068;12.058;2023-08-20T08:47:02;24.30;99.90
10042;DHT22;5061;49.068;12.058;2023-08-20T08:50:22;24.30;99.90
10042;DHT22;5061;49.068;12.058;2023-08-20T08:53:43;24.40;99.90
10042;DHT22;5061;49.068;12.058;2023-08-20T08:57:07;24.50;99.90
10042;DHT22;5061;49.068;12.058;2023-08-20T09:00:28;24.60;99.90
10042;DHT22;5061;49.068;12.058;2023-08-20T09:03:51;24.70;99.90
10042;DHT22;5061;49.068;12.058;2023-08-20T09:07:14;24.80;99.90
10042;DHT22;5061;49.068;12.058;2023-08-20T09:10:36;24.90;99.90
10042;DHT22;5061;49.068;12.058;2023-08-20T09:14:00;25.00;99.90
10042;DHT22;5061;49.068;12.058;2023-08-20T09:17:21;25.10;99.90
10042;DHT22;5061;49.068;12.058;2023-08-20T09:20:47;25.20;99.90
10042;DHT22;5061;49.068;12.058;2023-08-20T09:24:08;25.20;99.90
10042;DHT22;5061;49.068;12.058;2023-08-20T09:27:28;25.30;99.90
10042;DHT22;5061;49.068;12.058;2023-08-20T09:30:59;25.30;99.90
10042;DHT22;5061;49.068;12.058;2023-08-20T09:34:22;25.40;99.90
10042;DHT22;5061;49.068;12.058;2023-08-20T09:37:44;25.50;99.90
10042;DHT22;5061;49.068;12.058;2023-08-20T09:41:05;25.50;99.90
10042;DHT22;5061;49.068;12.058;2023-08-20T09:44:36;25.50;99.90
10042;DHT22;5061;49.068;12.058;2023-08-20T09:47:58;25.60;99.90
10042;DHT22;5061;49.068;12.058;2023-08-20T09:51:25;25.70;99.90
10042;DHT22;5061;49.068;12.058;2023-08-20T09:58:10;25.90;99.90
10042;DHT22;5061;49.068;12.058;2023-08-20T10:01:32;26.00;99.90
10042;DHT22;5061;49.068;12.058;2023-08-20T10:04:53;26.10;99.90
10042;DHT22;5061;49.068;12.058;2023-08-20T10:08:15;26.20;99.90
10042;DHT22;5061;49.068;12.058;2023-08-20T10:11:39;26.30;99.90
10042;DHT22;5061;49.068;12.058;2023-08-20T10:15:00;26.40;99.90
10042;DHT22;5061;49.068;12.058;2023-08-20T10:18:22;26.60;99.90
10042;DHT22;5061;49.068;12.058;2023-08-20T10:21:46;26.70;99.90
10042;DHT22;5061;49.068;12.058;2023-08-20T10:25:08;26.90;99.90
10042;DHT22;5061;49.068;12.058;2023-08-20T10:28:31;27.00;99.90
10042;DHT22;5061;49.068;12.058;2023-08-20T10:31:54;27.10;99.90
10042;DHT22;5061;49.068;12.058;2023-08-20T10:39:04;27.40;99.90
10042;DHT22;5061;49.068;12.058;2023-08-20T10:42:26;27.60;99.90
10042;DHT22;5061;49.068;12.058;2023-08-20T10:49:28;27.90;99.90
10042;DHT22;5061;49.068;12.058;2023-08-20T10:52:54;28.10;99.90
10042;DHT22;5061;49.068;12.058;2023-08-20T10:56:16;28.20;99.90
10042;DHT22;5061;49.068;12.058;2023-08-20T10:59:40;28.40;99.90
10042;DHT22;5061;49.068;12.058;2023-08-20T11:03:01;28.50;99.90
10042;DHT22;5061;49.068;12.058;2023-08-20T11:06:21;28.70;99.90
10042;DHT22;5061;49.068;12.058;2023-08-20T11:09:42;28.90;99.90
10042;DHT22;5061;49.068;12.058;2023-08-20T11:13:03;29.00;99.90
10042;DHT22;5061;49.068;12.058;2023-08-20T11:16:23;29.20;99.90
10042;DHT22;5061;49.068;12.058;2023-08-20T11:19:45;29.30;99.90
10042;DHT22;5061;49.068;12.058;2023-08-20T11:23:05;29.40;99.90
10042;DHT22;5061;49.068;12.058;2023-08-20T11:26:26;29.50;99.90
10042;DHT22;5061;49.068;12.058;2023-08-20T11:29:46;29.60;99.90
10042;DHT22;5061;49.068;12.058;2023-08-20T11:33:07;29.80;99.90
10042;DHT22;5061;49.068;12.058;2023-08-20T11:36:28;30.00;99.90
10042;DHT22;5061;49.068;12.058;2023-08-20T11:39:49;30.10;99.90
10042;DHT22;5061;49.068;12.058;2023-08-20T11:43:10;30.30;99.90
10042;DHT22;5061;49.068;12.058;2023-08-20T11:46:32;30.40;99.90
10042;DHT22;5061;49.068;12.058;2023-08-20T11:50:03;30.50;99.90
10042;DHT22;5061;49.068;12.058;2023-08-20T11:53:25;30.70;99.90
10042;DHT22;5061;49.068;12.058;2023-08-20T11:56:50;30.80;99.90
10042;DHT22;5061;49.068;12.058;2023-08-20T12:00:27;30.90;99.90
10042;DHT22;5061;49.068;12.058;2023-08-20T12:03:48;31.10;99.90
10042;DHT22;5061;49.068;12.058;2023-08-20T12:07:09;31.20;99.90
10042;DHT22;5061;49.068;12.058;2023-08-20T12:10:31;31.20;99.90
10042;DHT22;5061;49.068;12.058;2023-08-20T12:13:52;31.40;99.90
10042;DHT22;5061;49.068;12.058;2023-08-20T12:17:17;31.50;99.90
10042;DHT22;5061;49.068;12.058;2023-08-20T12:20:38;31.60;99.90
10042;DHT22;5061;49.068;12.058;2023-08-20T12:23:58;31.60;99.90
10042;DHT22;5061;49.068;12.058;2023-08-20T12:27:19;31.70;99.90
10042;DHT22;5061;49.068;12.058;2023-08-20T12:30:39;31.80;99.90
10042;DHT22;5061;49.068;12.058;2023-08-20T12:34:01;31.90;99.90
10042;DHT22;5061;49.068;12.058;2023-08-20T12:37:22;31.90;99.90
10042;DHT22;5061;49.068;12.058;2023-08-20T12:40:43;32.00;99.90
10042;DHT22;5061;49.068;12.058;2023-08-20T12:44:04;32.20;99.90
10042;DHT22;5061;49.068;12.058;2023-08-20T12:47:24;32.30;99.90
10042;DHT22;5061;49.068;12.058;2023-08-20T12:50:45;32.40;99.90
10042;DHT22;5061;49.068;12.058;2023-08-20T12:54:06;32.50;99.90
10042;DHT22;5061;49.068;12.058;2023-08-20T12:57:27;32.50;99.90
10042;DHT22;5061;49.068;12.058;2023-08-20T13:00:48;32.60;99.90
10042;DHT22;5061;49.068;12.058;2023-08-20T13:04:09;32.70;99.90
10042;DHT22;5061;49.068;12.058;2023-08-20T13:07:30;32.80;99.90
10042;DHT22;5061;49.068;12.058;2023-08-20T13:10:53;32.90;99.30
10042;DHT22;5061;49.068;12.058;2023-08-20T13:14:15;32.80;98.80
10042;DHT22;5061;49.068;12.058;2023-08-20T13:17:36;32.80;98.90
10042;DHT22;5061;49.068;12.058;2023-08-20T13:20:57;32.90;98.60
10042;DHT22;5061;49.068;12.058;2023-08-20T13:24:18;33.00;98.40
10042;DHT22;5061;49.068;12.058;2023-08-20T13:27:39;33.10;99.10
10042;DHT22;5061;49.068;12.058;2023-08-20T13:30:59;33.10;99.90
10042;DHT22;5061;49.068;12.058;2023-08-20T13:34:20;33.20;98.90
10042;DHT22;5061;49.068;12.058;2023-08-20T13:37:41;33.30;97.50
10042;DHT22;5061;49.068;12.058;2023-08-20T13:41:01;33.40;97.30
10042;DHT22;5061;49.068;12.058;2023-08-20T13:44:22;33.50;97.20
10042;DHT22;5061;49.068;12.058;2023-08-20T13:47:43;33.60;96.90
10042;DHT22;5061;49.068;12.058;2023-08-20T13:51:04;33.60;96.50
10042;DHT22;5061;49.068;12.058;2023-08-20T13:54:25;33.60;96.70
10042;DHT22;5061;49.068;12.058;2023-08-20T13:57:46;33.70;96.40
10042;DHT22;5061;49.068;12.058;2023-08-20T14:01:07;33.70;96.10
10042;DHT22;5061;49.068;12.058;2023-08-20T14:04:30;33.70;95.90
10042;DHT22;5061;49.068;12.058;2023-08-20T14:07:50;33.80;95.90
10042;DHT22;5061;49.068;12.058;2023-08-20T14:11:11;33.80;95.60
10042;DHT22;5061;49.068;12.058;2023-08-20T14:14:31;33.70;95.10
10042;DHT22;5061;49.068;12.058;2023-08-20T14:17:52;33.70;95.10
10042;DHT22;5061;49.068;12.058;2023-08-20T14:21:13;33.70;94.80
10042;DHT22;5061;49.068;12.058;2023-08-20T14:24:33;33.70;94.60
10042;DHT22;5061;49.068;12.058;2023-08-20T14:27:54;33.70;94.50
10042;DHT22;5061;49.068;12.058;2023-08-20T14:31:15;33.70;94.50
10042;DHT22;5061;49.068;12.058;2023-08-20T14:34:36;33.70;94.30
10042;DHT22;5061;49.068;12.058;2023-08-20T14:37:56;33.70;94.40
10042;DHT22;5061;49.068;12.058;2023-08-20T14:41:17;33.70;94.30
10042;DHT22;5061;49.068;12.058;2023-08-20T14:44:38;33.70;94.00
10042;DHT22;5061;49.068;12.058;2023-08-20T14:47:59;33.70;93.70
10042;DHT22;5061;49.068;12.058;2023-08-20T14:51:19;33.60;93.40
10042;DHT22;5061;49.068;12.058;2023-08-20T14:54:40;33.60;93.40
10042;DHT22;5061;49.068;12.058;2023-08-20T14:58:02;33.50;93.10
10042;DHT22;5061;49.068;12.058;2023-08-20T15:01:24;33.50;93.40
10042;DHT22;5061;49.068;12.058;2023-08-20T15:04:45;33.40;93.20
10042;DHT22;5061;49.068;12.058;2023-08-20T15:08:05;33.20;93.10
10042;DHT22;5061;49.068;12.058;2023-08-20T15:11:26;33.10;93.00
10042;DHT22;5061;49.068;12.058;2023-08-20T15:14:48;33.10;93.20
10042;DHT22;5061;49.068;12.058;2023-08-20T15:18:08;33.00;93.20
10042;DHT22;5061;49.068;12.058;2023-08-20T15:21:29;32.80;93.30
10042;DHT22;5061;49.068;12.058;2023-08-20T15:24:50;32.70;93.20
10042;DHT22;5061;49.068;12.058;2023-08-20T15:28:13;32.60;93.20
10042;DHT22;5061;49.068;12.058;2023-08-20T15:31:34;32.50;93.10
10042;DHT22;5061;49.068;12.058;2023-08-20T15:34:55;32.50;93.30
10042;DHT22;5061;49.068;12.058;2023-08-20T15:38:16;32.50;93.20
10042;DHT22;5061;49.068;12.058;2023-08-20T15:41:37;32.50;93.20
10042;DHT22;5061;49.068;12.058;2023-08-20T15:44:57;32.50;93.20
10042;DHT22;5061;49.068;12.058;2023-08-20T15:48:19;32.50;93.00
10042;DHT22;5061;49.068;12.058;2023-08-20T15:51:40;32.30;92.90
10042;DHT22;5061;49.068;12.058;2023-08-20T15:55:01;32.30;92.80
10042;DHT22;5061;49.068;12.058;2023-08-20T15:58:22;32.20;92.90
10042;DHT22;5061;49.068;12.058;2023-08-20T16:01:43;32.20;92.80
10042;DHT22;5061;49.068;12.058;2023-08-20T16:05:04;32.10;92.70
10042;DHT22;5061;49.068;12.058;2023-08-20T16:08:24;32.00;92.60
10042;DHT22;5061;49.068;12.058;2023-08-20T16:11:45;31.80;92.50
10042;DHT22;5061;49.068;12.058;2023-08-20T16:15:07;31.80;92.70
10042;DHT22;5061;49.068;12.058;2023-08-20T16:18:27;31.70;92.80
10042;DHT22;5061;49.068;12.058;2023-08-20T16:21:49;31.60;93.00
10042;DHT22;5061;49.068;12.058;2023-08-20T16:25:09;31.50;93.00
10042;DHT22;5061;49.068;12.058;2023-08-20T16:28:30;31.40;93.20
10042;DHT22;5061;49.068;12.058;2023-08-20T16:31:51;31.30;93.10
10042;DHT22;5061;49.068;12.058;2023-08-20T16:35:11;31.20;93.20
10042;DHT22;5061;49.068;12.058;2023-08-20T16:38:32;31.00;93.30
10042;DHT22;5061;49.068;12.058;2023-08-20T16:41:53;30.90;93.20
10042;DHT22;5061;49.068;12.058;2023-08-20T16:45:14;30.90;93.30
10042;DHT22;5061;49.068;12.058;2023-08-20T16:48:34;30.80;93.40
10042;DHT22;5061;49.068;12.058;2023-08-20T16:51:56;30.80;93.50
10042;DHT22;5061;49.068;12.058;2023-08-20T16:55:19;30.80;93.60
10042;DHT22;5061;49.068;12.058;2023-08-20T16:58:40;30.80;93.90
10042;DHT22;5061;49.068;12.058;2023-08-20T17:02:03;30.80;93.80
10042;DHT22;5061;49.068;12.058;2023-08-20T17:05:25;30.80;93.80
10042;DHT22;5061;49.068;12.058;2023-08-20T17:08:46;30.70;93.80
10042;DHT22;5061;49.068;12.058;2023-08-20T17:12:07;30.80;93.90
10042;DHT22;5061;49.068;12.058;2023-08-20T17:15:27;30.60;93.80
10042;DHT22;5061;49.068;12.058;2023-08-20T17:18:48;30.60;93.90
10042;DHT22;5061;49.068;12.058;2023-08-20T17:22:09;30.50;94.00
10042;DHT22;5061;49.068;12.058;2023-08-20T17:25:30;30.30;94.00
10042;DHT22;5061;49.068;12.058;2023-08-20T17:28:50;30.20;94.10
10042;DHT22;5061;49.068;12.058;2023-08-20T17:32:11;30.10;94.20
10042;DHT22;5061;49.068;12.058;2023-08-20T17:35:32;30.00;94.30
10042;DHT22;5061;49.068;12.058;2023-08-20T17:38:53;29.90;94.30
10042;DHT22;5061;49.068;12.058;2023-08-20T17:42:14;29.70;94.40
10042;DHT22;5061;49.068;12.058;2023-08-20T17:45:35;29.70;94.60
10042;DHT22;5061;49.068;12.058;2023-08-20T17:48:58;29.50;94.70
10042;DHT22;5061;49.068;12.058;2023-08-20T17:52:21;29.30;94.80
10042;DHT22;5061;49.068;12.058;2023-08-20T17:55:42;29.20;94.90
10042;DHT22;5061;49.068;12.058;2023-08-20T17:59:02;29.10;94.90
10042;DHT22;5061;49.068;12.058;2023-08-20T18:02:23;28.90;94.90
10042;DHT22;5061;49.068;12.058;2023-08-20T18:05:44;28.80;95.10
10042;DHT22;5061;49.068;12.058;2023-08-20T18:09:04;28.70;95.20
10042;DHT22;5061;49.068;12.058;2023-08-20T18:12:25;28.50;95.20
10042;DHT22;5061;49.068;12.058;2023-08-20T18:15:46;28.40;95.40
10042;DHT22;5061;49.068;12.058;2023-08-20T18:19:07;28.30;95.40
10042;DHT22;5061;49.068;12.058;2023-08-20T18:22:27;28.20;95.60
10042;DHT22;5061;49.068;12.058;2023-08-20T18:25:49;28.00;95.60
10042;DHT22;5061;49.068;12.058;2023-08-20T18:29:09;27.90;95.70
10042;DHT22;5061;49.068;12.058;2023-08-20T18:32:31;27.70;95.80
10042;DHT22;5061;49.068;12.058;2023-08-20T18:36:02;27.60;96.00
10042;DHT22;5061;49.068;12.058;2023-08-20T18:39:24;27.50;96.10
10042;DHT22;5061;49.068;12.058;2023-08-20T18:42:45;27.40;96.20
10042;DHT22;5061;49.068;12.058;2023-08-20T18:46:06;27.30;96.30
10042;DHT22;5061;49.068;12.058;2023-08-20T18:49:26;27.20;96.40
10042;DHT22;5061;49.068;12.058;2023-08-20T18:52:48;27.00;96.50
10042;DHT22;5061;49.068;12.058;2023-08-20T18:56:08;27.00;96.60
10042;DHT22;5061;49.068;12.058;2023-08-20T18:59:29;26.80;96.70
10042;DHT22;5061;49.068;12.058;2023-08-20T19:02:50;26.80;96.80
10042;DHT22;5061;49.068;12.058;2023-08-20T19:06:10;26.70;96.90
10042;DHT22;5061;49.068;12.058;2023-08-20T19:09:32;26.50;97.00
10042;DHT22;5061;49.068;12.058;2023-08-20T19:12:52;26.50;97.10
10042;DHT22;5061;49.068;12.058;2023-08-20T19:16:13;26.40;97.30
10042;DHT22;5061;49.068;12.058;2023-08-20T19:19:33;26.30;97.40
10042;DHT22;5061;49.068;12.058;2023-08-20T19:22:54;26.20;97.40
10042;DHT22;5061;49.068;12.058;2023-08-20T19:26:15;26.20;97.60
10042;DHT22;5061;49.068;12.058;2023-08-20T19:29:36;26.10;97.60
10042;DHT22;5061;49.068;12.058;2023-08-20T19:32:56;26.00;97.70
10042;DHT22;5061;49.068;12.058;2023-08-20T19:36:17;26.00;97.90
10042;DHT22;5061;49.068;12.058;2023-08-20T19:39:38;25.90;98.00
10042;DHT22;5061;49.068;12.058;2023-08-20T19:42:58;25.80;98.10
10042;DHT22;5061;49.068;12.058;2023-08-20T19:46:19;25.80;98.30
10042;DHT22;5061;49.068;12.058;2023-08-20T19:49:39;25.70;98.40
10042;DHT22;5061;49.068;12.058;2023-08-20T19:53:00;25.70;98.50
10042;DHT22;5061;49.068;12.058;2023-08-20T19:56:21;25.60;98.60
10042;DHT22;5061;49.068;12.058;2023-08-20T19:59:41;25.60;98.70
10042;DHT22;5061;49.068;12.058;2023-08-20T20:03:02;25.60;99.00
10042;DHT22;5061;49.068;12.058;2023-08-20T20:06:23;25.50;99.10
10042;DHT22;5061;49.068;12.058;2023-08-20T20:09:45;25.50;99.00
10042;DHT22;5061;49.068;12.058;2023-08-20T20:13:20;25.40;99.20
10042;DHT22;5061;49.068;12.058;2023-08-20T20:16:40;25.40;99.10
10042;DHT22;5061;49.068;12.058;2023-08-20T20:20:04;25.40;99.20
10042;DHT22;5061;49.068;12.058;2023-08-20T20:23:45;25.30;99.20
10042;DHT22;5061;49.068;12.058;2023-08-20T20:27:06;25.30;99.20
10042;DHT22;5061;49.068;12.058;2023-08-20T20:30:27;25.30;99.30
10042;DHT22;5061;49.068;12.058;2023-08-20T20:33:47;25.30;99.30
10042;DHT22;5061;49.068;12.058;2023-08-20T20:37:08;25.30;99.40
10042;DHT22;5061;49.068;12.058;2023-08-20T20:40:34;25.30;99.40
10042;DHT22;5061;49.068;12.058;2023-08-20T20:43:55;25.30;99.50
10042;DHT22;5061;49.068;12.058;2023-08-20T20:47:15;25.20;99.40
10042;DHT22;5061;49.068;12.058;2023-08-20T20:50:44;25.20;99.50
10042;DHT22;5061;49.068;12.058;2023-08-20T20:54:05;25.20;99.60
10042;DHT22;5061;49.068;12.058;2023-08-20T20:57:41;25.20;99.60
10042;DHT22;5061;49.068;12.058;2023-08-20T21:01:04;25.20;99.60
10042;DHT22;5061;49.068;12.058;2023-08-20T21:04:24;25.10;99.80
10042;DHT22;5061;49.068;12.058;2023-08-20T21:07:48;25.10;99.80
10042;DHT22;5061;49.068;12.058;2023-08-20T21:11:08;25.10;99.90
10042;DHT22;5061;49.068;12.058;2023-08-20T21:14:29;25.10;99.90
10042;DHT22;5061;49.068;12.058;2023-08-20T21:17:50;25.00;99.90
10042;DHT22;5061;49.068;12.058;2023-08-20T21:21:10;25.00;99.90
10042;DHT22;5061;49.068;12.058;2023-08-20T21:24:33;24.90;99.90
10042;DHT22;5061;49.068;12.058;2023-08-20T21:27:53;24.90;99.90